Browns Valley, SD

5:17 AM CST on February 10, 2016 (GMT -0600)
APRSWXNET | | Change Station
CLOSE
Current Station
Personal Weather Station
Location: Beardsley, MN
Elevation: 1164 ft
Nearby Weather Stations
Active Advisory: Special Statement

Elev 1164 ft 45.54 °N, 96.88 °W | Updated 11 hours ago

Snow
Snow
11 °F
Feels Like -1 °F
N
8
Wind Variable Wind from ESE
Gusts mph

Today
High -- | Low -- °F
--% Chance of Precip.
Yesterday
High -- | Low -- °F
Precip. -- in
Pressure 30.10 in
Visibility 4.0 miles
Clouds Overcast 1200 ft
Windchill -1 °F
Dew Point 7 °F
Humidity 85%
Rainfall in
Snow Depth Not available.
7:37 AM 5:46 PM
Waxing Crescent, 5% visible
METAR KETH 101116Z AUTO 09009KT 4SM -SN OVC012 M13/M15 A3010 RMK AO2
Pressure 30.10 in
Visibility 4.0 miles
Clouds Overcast 1200 ft
Windchill -1 °F
Dew Point 7 °F
Humidity 85%
Rainfall in
Snow Depth Not available.
7:37 AM 5:46 PM
Waxing Crescent, 5% visible
METAR KETH 101116Z AUTO 09009KT 4SM -SN OVC012 M13/M15 A3010 RMK AO2

10-Day Weather Forecast

Almanac

Astronomy

Feb. 10, 2016 Rise Set
Actual Time
Civil Twilight
Nautical Twilight
Astronomical Twilight
Moon
Length of Visible Light
Length of Day
Tomorrow will be .
, % of the Moon is Illuminated

Today's Extremes

State Highs State Lows

Community

WunderPhotos

Upload Photos

1,891,830 photos uploaded!

WunderBlog® & News

Nearby

Air Quality

  Air Quality AQ Index Pollutant
Not available.

Snow Depth

Station Depth Elevation

Earthquake Activity

City Distance Mag. Time & Date
Minimum magnitude displayed is 2.5.

Coastal Water Temperatures

Place Temperature

Stations

Nearby Weather Stations

Station Location Temp. Windchill Dew Point Humidity Wind Precip. Elev Updated Type
                   

Watches & Warnings

Special Statement
Issued: 4:13 AM CST Feb. 10, 2016 – National Weather Service

A band of snow will persist across the Sisseton hills region and
far western Minnesota through the morning hours... impacting the
Interstate 29 corridor. Snow accumulations could top 2 to 3
inches with this system. Slick Road conditions are possible but
winds will be light.


Connelly